N882IS FSIA-FSPP
Flight info
| Callsign | N882IS |
|---|---|
| Flight time | 0h 15m |
| Altitude | 2500 |
| Route | SAVVY |
| Aircraft | C172/L-SBDGR/C |
Departure
| Time | 2026-04-28 13:00 |
|---|---|
| Airport | Seychelles International Airport (FSIA) |
Arrival
| Time | 2026-04-28 13:15 |
|---|---|
| Airport | Praslin Island Airport (FSPP) |
| Time | Latitude | Longitude | Altitude | Speed | Heading |
|---|---|---|---|---|---|
| 2026-04-28 12:45 | -4.66885 | 55.50771 | 7 ft | 0 kts | 35° |
| 2026-04-28 12:51 | -4.66875 | 55.50784 | 7 ft | 8 kts | 71° |
| 2026-04-28 12:52 | -4.66895 | 55.50840 | 8 ft | 9 kts | 122° |
| 2026-04-28 12:52 | -4.66923 | 55.50896 | 9 ft | 8 kts | 83° |
| 2026-04-28 12:52 | -4.66882 | 55.50930 | 9 ft | 9 kts | 18° |
| 2026-04-28 12:52 | -4.66814 | 55.50951 | 7 ft | 10 kts | 52° |
| 2026-04-28 12:53 | -4.66774 | 55.51008 | 7 ft | 9 kts | 53° |
| 2026-04-28 12:53 | -4.66753 | 55.51036 | 7 ft | 1 kts | 53° |
| 2026-04-28 12:53 | -4.66753 | 55.51037 | 7 ft | 0 kts | 51° |
| 2026-04-28 12:53 | -4.66752 | 55.51038 | 7 ft | 1 kts | 49° |
| 2026-04-28 12:54 | -4.66749 | 55.51041 | 7 ft | 4 kts | 45° |
| 2026-04-28 12:54 | -4.66687 | 55.51090 | 7 ft | 14 kts | 61° |
| 2026-04-28 12:54 | -4.66727 | 55.51177 | 7 ft | 18 kts | 124° |
| 2026-04-28 12:54 | -4.66811 | 55.51296 | 8 ft | 23 kts | 124° |
| 2026-04-28 12:55 | -4.66904 | 55.51430 | 9 ft | 22 kts | 125° |
| 2026-04-28 12:55 | -4.66997 | 55.51563 | 11 ft | 24 kts | 125° |
| 2026-04-28 12:55 | -4.67100 | 55.51710 | 12 ft | 26 kts | 124° |
| 2026-04-28 12:55 | -4.67210 | 55.51867 | 13 ft | 28 kts | 124° |
| 2026-04-28 12:56 | -4.67324 | 55.52030 | 12 ft | 29 kts | 123° |
| 2026-04-28 12:56 | -4.67442 | 55.52198 | 11 ft | 29 kts | 124° |
| 2026-04-28 12:56 | -4.67560 | 55.52367 | 10 ft | 29 kts | 124° |
| 2026-04-28 12:56 | -4.67671 | 55.52526 | 9 ft | 26 kts | 125° |
| 2026-04-28 12:57 | -4.67772 | 55.52670 | 11 ft | 24 kts | 124° |
| 2026-04-28 12:57 | -4.67870 | 55.52811 | 14 ft | 24 kts | 124° |
| 2026-04-28 12:57 | -4.67966 | 55.52947 | 16 ft | 22 kts | 124° |
| 2026-04-28 12:57 | -4.68039 | 55.53030 | 17 ft | 10 kts | 119° |
| 2026-04-28 12:58 | -4.68026 | 55.53033 | 16 ft | 0 kts | 305° |
| 2026-04-28 12:59 | -4.68016 | 55.53018 | 16 ft | 12 kts | 304° |
| 2026-04-28 12:59 | -4.67871 | 55.52811 | 14 ft | 59 kts | 304° |
| 2026-04-28 12:59 | -4.67603 | 55.52421 | 98 ft | 71 kts | 306° |
| 2026-04-28 12:59 | -4.67306 | 55.51997 | 201 ft | 76 kts | 307° |
| 2026-04-28 13:00 | -4.66999 | 55.51557 | 334 ft | 76 kts | 304° |
| 2026-04-28 13:00 | -4.66701 | 55.51120 | 472 ft | 78 kts | 306° |
| 2026-04-28 13:00 | -4.66337 | 55.50750 | 651 ft | 75 kts | 336° |
| 2026-04-28 13:00 | -4.65814 | 55.50746 | 798 ft | 79 kts | 14° |
| 2026-04-28 13:01 | -4.65294 | 55.50976 | 918 ft | 85 kts | 26° |
| 2026-04-28 13:01 | -4.64771 | 55.51305 | 1036 ft | 90 kts | 31° |
| 2026-04-28 13:01 | -4.64256 | 55.51688 | 1153 ft | 94 kts | 36° |
| 2026-04-28 13:01 | -4.63737 | 55.52117 | 1269 ft | 96 kts | 37° |
| 2026-04-28 13:02 | -4.63226 | 55.52568 | 1387 ft | 98 kts | 39° |
| 2026-04-28 13:02 | -4.62892 | 55.52872 | 1462 ft | 99 kts | 40° |
| 2026-04-28 13:02 | -4.62227 | 55.53528 | 1625 ft | 100 kts | 52° |
| 2026-04-28 13:02 | -4.61857 | 55.54110 | 1756 ft | 99 kts | 58° |
| 2026-04-28 13:03 | -4.61512 | 55.54713 | 1891 ft | 98 kts | 58° |
| 2026-04-28 13:03 | -4.61179 | 55.55301 | 2028 ft | 97 kts | 59° |
| 2026-04-28 13:03 | -4.60839 | 55.55900 | 2131 ft | 100 kts | 58° |
| 2026-04-28 13:03 | -4.60489 | 55.56520 | 2222 ft | 103 kts | 58° |
| 2026-04-28 13:04 | -4.60132 | 55.57153 | 2314 ft | 104 kts | 58° |
| 2026-04-28 13:04 | -4.59774 | 55.57785 | 2408 ft | 105 kts | 58° |
| 2026-04-28 13:04 | -4.59410 | 55.58431 | 2481 ft | 107 kts | 58° |
| 2026-04-28 13:04 | -4.59023 | 55.59114 | 2496 ft | 114 kts | 58° |
| 2026-04-28 13:05 | -4.58623 | 55.59824 | 2494 ft | 119 kts | 58° |
| 2026-04-28 13:05 | -4.58209 | 55.60555 | 2496 ft | 121 kts | 58° |
| 2026-04-28 13:05 | -4.57797 | 55.61285 | 2497 ft | 121 kts | 59° |
| 2026-04-28 13:05 | -4.57376 | 55.62031 | 2492 ft | 123 kts | 59° |
| 2026-04-28 13:06 | -4.56952 | 55.62785 | 2492 ft | 123 kts | 59° |
| 2026-04-28 13:06 | -4.56531 | 55.63531 | 2494 ft | 123 kts | 59° |
| 2026-04-28 13:06 | -4.56104 | 55.64287 | 2492 ft | 123 kts | 59° |
| 2026-04-28 13:06 | -4.55679 | 55.65041 | 2494 ft | 123 kts | 58° |
| 2026-04-28 13:07 | -4.55258 | 55.65786 | 2494 ft | 123 kts | 58° |
| 2026-04-28 13:07 | -4.54833 | 55.66535 | 2498 ft | 123 kts | 59° |
| 2026-04-28 13:07 | -4.54406 | 55.67288 | 2493 ft | 123 kts | 59° |
| 2026-04-28 13:07 | -4.54120 | 55.67798 | 2498 ft | 123 kts | 59° |
| 2026-04-28 13:08 | -4.53554 | 55.68801 | 2497 ft | 124 kts | 58° |
| 2026-04-28 13:08 | -4.53131 | 55.69552 | 2500 ft | 124 kts | 59° |
| 2026-04-28 13:08 | -4.52698 | 55.70314 | 2499 ft | 124 kts | 56° |
| 2026-04-28 13:08 | -4.52091 | 55.70911 | 2496 ft | 122 kts | 35° |
| 2026-04-28 13:09 | -4.51387 | 55.71403 | 2495 ft | 122 kts | 31° |
| 2026-04-28 13:09 | -4.50682 | 55.71875 | 2494 ft | 122 kts | 31° |
| 2026-04-28 13:09 | -4.49976 | 55.72345 | 2492 ft | 121 kts | 32° |
| 2026-04-28 13:09 | -4.49263 | 55.72818 | 2493 ft | 121 kts | 31° |
| 2026-04-28 13:10 | -4.48563 | 55.73286 | 2494 ft | 121 kts | 31° |
| 2026-04-28 13:10 | -4.47863 | 55.73752 | 2496 ft | 120 kts | 31° |
| 2026-04-28 13:10 | -4.47167 | 55.74215 | 2493 ft | 120 kts | 31° |
| 2026-04-28 13:10 | -4.46462 | 55.74683 | 2492 ft | 120 kts | 31° |
| 2026-04-28 13:11 | -4.45759 | 55.75153 | 2494 ft | 120 kts | 31° |
| 2026-04-28 13:11 | -4.45060 | 55.75618 | 2493 ft | 120 kts | 31° |
| 2026-04-28 13:11 | -4.44335 | 55.76034 | 2490 ft | 119 kts | 13° |
| 2026-04-28 13:11 | -4.43484 | 55.75949 | 2349 ft | 127 kts | 338° |
| 2026-04-28 13:12 | -4.42676 | 55.75552 | 2169 ft | 133 kts | 330° |
| 2026-04-28 13:12 | -4.41861 | 55.75087 | 1977 ft | 135 kts | 328° |
| 2026-04-28 13:12 | -4.41033 | 55.74603 | 1810 ft | 133 kts | 328° |
| 2026-04-28 13:12 | -4.40244 | 55.74136 | 1706 ft | 130 kts | 328° |
| 2026-04-28 13:13 | -4.39479 | 55.73680 | 1670 ft | 126 kts | 327° |
| 2026-04-28 13:13 | -4.38697 | 55.73210 | 1480 ft | 133 kts | 328° |
| 2026-04-28 13:13 | -4.37893 | 55.72730 | 1293 ft | 135 kts | 328° |
| 2026-04-28 13:13 | -4.37080 | 55.72244 | 1106 ft | 136 kts | 328° |
| 2026-04-28 13:14 | -4.36262 | 55.71755 | 913 ft | 135 kts | 328° |
| 2026-04-28 13:14 | -4.35450 | 55.71269 | 726 ft | 135 kts | 328° |
| 2026-04-28 13:14 | -4.34645 | 55.70787 | 550 ft | 135 kts | 329° |
| 2026-04-28 13:14 | -4.33833 | 55.70303 | 372 ft | 135 kts | 328° |
| 2026-04-28 13:15 | -4.33051 | 55.69834 | 201 ft | 113 kts | 329° |
| 2026-04-28 13:15 | -4.32532 | 55.69523 | 59 ft | 72 kts | 328° |
| 2026-04-28 13:15 | -4.32197 | 55.69322 | 10 ft | 28 kts | 329° |
| 2026-04-28 13:15 | -4.32144 | 55.69290 | 10 ft | 6 kts | 154° |
| 2026-04-28 13:16 | -4.32222 | 55.69329 | 10 ft | 13 kts | 179° |
| 2026-04-28 13:16 | -4.32294 | 55.69306 | 10 ft | 7 kts | 200° |
| 2026-04-28 13:16 | -4.32337 | 55.69289 | 10 ft | 7 kts | 217° |
| 2026-04-28 13:16 | -4.32339 | 55.69272 | 10 ft | 0 kts | 326° |